sensor_id;sensor_type;location;lat;lon;timestamp;temperature;humidity
21039;DHT22;10678;51.002;4.786;2024-03-22T00:00:07;13.60;99.90
21039;DHT22;10678;51.002;4.786;2024-03-22T00:02:37;13.60;99.90
21039;DHT22;10678;51.002;4.786;2024-03-22T00:05:03;13.60;99.90
21039;DHT22;10678;51.002;4.786;2024-03-22T00:07:28;13.60;99.90
21039;DHT22;10678;51.002;4.786;2024-03-22T00:09:54;13.60;99.90
21039;DHT22;10678;51.002;4.786;2024-03-22T00:12:20;13.70;99.90
21039;DHT22;10678;51.002;4.786;2024-03-22T00:14:45;13.80;99.90
21039;DHT22;10678;51.002;4.786;2024-03-22T00:17:11;13.70;99.90
21039;DHT22;10678;51.002;4.786;2024-03-22T00:19:36;13.80;99.90
21039;DHT22;10678;51.002;4.786;2024-03-22T00:22:02;13.70;99.90
21039;DHT22;10678;51.002;4.786;2024-03-22T00:24:28;13.60;99.90
21039;DHT22;10678;51.002;4.786;2024-03-22T00:26:53;13.70;99.90
21039;DHT22;10678;51.002;4.786;2024-03-22T00:29:19;13.50;99.90
21039;DHT22;10678;51.002;4.786;2024-03-22T00:31:44;13.60;99.90
21039;DHT22;10678;51.002;4.786;2024-03-22T00:34:10;13.70;99.90
21039;DHT22;10678;51.002;4.786;2024-03-22T00:36:36;13.80;99.90
21039;DHT22;10678;51.002;4.786;2024-03-22T00:39:02;13.80;99.90
21039;DHT22;10678;51.002;4.786;2024-03-22T00:41:28;13.80;99.90
21039;DHT22;10678;51.002;4.786;2024-03-22T00:43:54;13.70;99.90
21039;DHT22;10678;51.002;4.786;2024-03-22T00:46:20;13.70;99.90
21039;DHT22;10678;51.002;4.786;2024-03-22T00:48:45;13.60;99.90
21039;DHT22;10678;51.002;4.786;2024-03-22T00:51:11;13.60;99.90
21039;DHT22;10678;51.002;4.786;2024-03-22T00:53:36;13.70;99.90
21039;DHT22;10678;51.002;4.786;2024-03-22T00:56:02;13.80;99.90
21039;DHT22;10678;51.002;4.786;2024-03-22T00:58:28;13.70;99.90
21039;DHT22;10678;51.002;4.786;2024-03-22T01:00:54;13.70;99.90
21039;DHT22;10678;51.002;4.786;2024-03-22T01:03:20;13.70;99.90
21039;DHT22;10678;51.002;4.786;2024-03-22T01:05:46;13.80;99.90
21039;DHT22;10678;51.002;4.786;2024-03-22T01:08:12;13.80;99.90
21039;DHT22;10678;51.002;4.786;2024-03-22T01:10:37;13.70;99.90
21039;DHT22;10678;51.002;4.786;2024-03-22T01:13:03;13.70;99.90
21039;DHT22;10678;51.002;4.786;2024-03-22T01:15:28;13.70;99.90
21039;DHT22;10678;51.002;4.786;2024-03-22T01:17:55;13.70;99.90
21039;DHT22;10678;51.002;4.786;2024-03-22T01:20:20;13.70;99.90
21039;DHT22;10678;51.002;4.786;2024-03-22T01:22:46;13.70;99.90
21039;DHT22;10678;51.002;4.786;2024-03-22T01:25:12;13.60;99.90
21039;DHT22;10678;51.002;4.786;2024-03-22T01:27:37;13.50;99.90
21039;DHT22;10678;51.002;4.786;2024-03-22T01:30:03;13.40;99.90
21039;DHT22;10678;51.002;4.786;2024-03-22T01:32:29;13.40;99.90
21039;DHT22;10678;51.002;4.786;2024-03-22T01:34:55;13.40;99.90
21039;DHT22;10678;51.002;4.786;2024-03-22T01:37:20;13.40;99.90
21039;DHT22;10678;51.002;4.786;2024-03-22T01:39:46;13.30;99.90
21039;DHT22;10678;51.002;4.786;2024-03-22T01:42:11;13.30;99.90
21039;DHT22;10678;51.002;4.786;2024-03-22T01:44:37;13.10;99.90
21039;DHT22;10678;51.002;4.786;2024-03-22T01:47:03;13.20;99.90
21039;DHT22;10678;51.002;4.786;2024-03-22T01:49:29;13.30;99.90
21039;DHT22;10678;51.002;4.786;2024-03-22T01:51:55;13.10;99.90
21039;DHT22;10678;51.002;4.786;2024-03-22T01:54:21;13.10;99.90
21039;DHT22;10678;51.002;4.786;2024-03-22T01:56:47;12.90;99.90
21039;DHT22;10678;51.002;4.786;2024-03-22T01:59:13;12.90;99.90
21039;DHT22;10678;51.002;4.786;2024-03-22T02:01:39;12.90;99.90
21039;DHT22;10678;51.002;4.786;2024-03-22T02:04:05;13.00;99.90
21039;DHT22;10678;51.002;4.786;2024-03-22T02:06:31;12.90;99.90
21039;DHT22;10678;51.002;4.786;2024-03-22T02:08:57;12.90;99.90
21039;DHT22;10678;51.002;4.786;2024-03-22T02:11:27;12.80;99.90
21039;DHT22;10678;51.002;4.786;2024-03-22T02:13:53;12.70;99.90
21039;DHT22;10678;51.002;4.786;2024-03-22T02:16:19;12.70;99.90
21039;DHT22;10678;51.002;4.786;2024-03-22T02:18:44;12.80;99.90
21039;DHT22;10678;51.002;4.786;2024-03-22T02:21:10;12.70;99.90
21039;DHT22;10678;51.002;4.786;2024-03-22T02:23:38;12.50;99.90
21039;DHT22;10678;51.002;4.786;2024-03-22T02:26:04;12.40;99.90
21039;DHT22;10678;51.002;4.786;2024-03-22T02:28:31;12.50;99.90
21039;DHT22;10678;51.002;4.786;2024-03-22T02:31:01;12.50;99.90
21039;DHT22;10678;51.002;4.786;2024-03-22T02:33:26;12.50;99.90
21039;DHT22;10678;51.002;4.786;2024-03-22T02:35:52;12.50;99.90
21039;DHT22;10678;51.002;4.786;2024-03-22T02:38:18;12.60;99.90
21039;DHT22;10678;51.002;4.786;2024-03-22T02:40:44;12.70;99.90
21039;DHT22;10678;51.002;4.786;2024-03-22T02:43:11;12.80;99.90
21039;DHT22;10678;51.002;4.786;2024-03-22T02:45:37;12.70;99.90
21039;DHT22;10678;51.002;4.786;2024-03-22T02:48:02;12.70;99.90
21039;DHT22;10678;51.002;4.786;2024-03-22T02:50:32;12.80;99.90
21039;DHT22;10678;51.002;4.786;2024-03-22T02:52:57;12.90;99.90
21039;DHT22;10678;51.002;4.786;2024-03-22T02:55:23;12.80;99.90
21039;DHT22;10678;51.002;4.786;2024-03-22T02:57:49;12.90;99.90
21039;DHT22;10678;51.002;4.786;2024-03-22T03:00:15;12.90;99.90
21039;DHT22;10678;51.002;4.786;2024-03-22T03:02:41;13.00;99.90
21039;DHT22;10678;51.002;4.786;2024-03-22T03:05:07;13.00;99.90
21039;DHT22;10678;51.002;4.786;2024-03-22T03:07:32;12.90;99.90
21039;DHT22;10678;51.002;4.786;2024-03-22T03:09:58;12.80;99.90
21039;DHT22;10678;51.002;4.786;2024-03-22T03:12:24;12.80;99.90
21039;DHT22;10678;51.002;4.786;2024-03-22T03:14:49;12.90;99.90
21039;DHT22;10678;51.002;4.786;2024-03-22T03:17:15;12.90;99.90
21039;DHT22;10678;51.002;4.786;2024-03-22T03:19:40;12.90;99.90
21039;DHT22;10678;51.002;4.786;2024-03-22T03:22:06;12.80;99.90
21039;DHT22;10678;51.002;4.786;2024-03-22T03:24:32;12.80;99.90
21039;DHT22;10678;51.002;4.786;2024-03-22T03:26:57;12.70;99.90
21039;DHT22;10678;51.002;4.786;2024-03-22T03:29:23;12.70;99.90
21039;DHT22;10678;51.002;4.786;2024-03-22T03:31:48;12.90;99.90
21039;DHT22;10678;51.002;4.786;2024-03-22T03:34:15;12.90;99.90
21039;DHT22;10678;51.002;4.786;2024-03-22T03:36:41;12.80;99.90
21039;DHT22;10678;51.002;4.786;2024-03-22T03:39:06;12.80;99.90
21039;DHT22;10678;51.002;4.786;2024-03-22T03:41:32;12.90;99.90
21039;DHT22;10678;51.002;4.786;2024-03-22T03:43:57;12.90;99.90
21039;DHT22;10678;51.002;4.786;2024-03-22T03:46:23;12.80;99.90
21039;DHT22;10678;51.002;4.786;2024-03-22T03:48:49;12.90;99.90
21039;DHT22;10678;51.002;4.786;2024-03-22T03:51:14;12.90;99.90
21039;DHT22;10678;51.002;4.786;2024-03-22T03:53:40;12.90;99.90
21039;DHT22;10678;51.002;4.786;2024-03-22T03:56:06;12.80;99.90
21039;DHT22;10678;51.002;4.786;2024-03-22T03:58:31;12.90;99.90
21039;DHT22;10678;51.002;4.786;2024-03-22T04:00:57;13.00;99.90
21039;DHT22;10678;51.002;4.786;2024-03-22T04:03:23;13.10;99.90
21039;DHT22;10678;51.002;4.786;2024-03-22T04:05:59;13.10;99.90
21039;DHT22;10678;51.002;4.786;2024-03-22T04:08:29;13.00;99.90
21039;DHT22;10678;51.002;4.786;2024-03-22T04:10:56;12.90;99.90
21039;DHT22;10678;51.002;4.786;2024-03-22T04:13:25;13.00;99.90
21039;DHT22;10678;51.002;4.786;2024-03-22T04:15:52;13.00;99.90
21039;DHT22;10678;51.002;4.786;2024-03-22T04:18:18;12.90;99.90
21039;DHT22;10678;51.002;4.786;2024-03-22T04:20:53;12.80;99.90
21039;DHT22;10678;51.002;4.786;2024-03-22T04:23:19;12.80;99.90
21039;DHT22;10678;51.002;4.786;2024-03-22T04:25:58;12.80;99.90
21039;DHT22;10678;51.002;4.786;2024-03-22T04:28:30;12.80;99.90
21039;DHT22;10678;51.002;4.786;2024-03-22T04:33:24;13.10;99.90
21039;DHT22;10678;51.002;4.786;2024-03-22T04:35:50;13.00;99.90
21039;DHT22;10678;51.002;4.786;2024-03-22T04:38:16;12.90;99.90
21039;DHT22;10678;51.002;4.786;2024-03-22T04:40:42;12.80;99.90
21039;DHT22;10678;51.002;4.786;2024-03-22T04:43:08;12.80;99.90
21039;DHT22;10678;51.002;4.786;2024-03-22T04:45:34;12.80;99.90
21039;DHT22;10678;51.002;4.786;2024-03-22T04:48:02;12.80;99.90
21039;DHT22;10678;51.002;4.786;2024-03-22T04:50:27;12.70;99.90
21039;DHT22;10678;51.002;4.786;2024-03-22T04:52:53;12.70;99.90
21039;DHT22;10678;51.002;4.786;2024-03-22T04:55:19;12.60;99.90
21039;DHT22;10678;51.002;4.786;2024-03-22T04:57:44;12.60;99.90
21039;DHT22;10678;51.002;4.786;2024-03-22T05:00:10;12.50;99.90
21039;DHT22;10678;51.002;4.786;2024-03-22T05:02:36;12.50;99.90
21039;DHT22;10678;51.002;4.786;2024-03-22T05:05:02;12.40;99.90
21039;DHT22;10678;51.002;4.786;2024-03-22T05:07:27;12.50;99.90
21039;DHT22;10678;51.002;4.786;2024-03-22T05:09:53;12.50;99.90
21039;DHT22;10678;51.002;4.786;2024-03-22T05:12:19;12.50;99.90
21039;DHT22;10678;51.002;4.786;2024-03-22T05:14:44;12.70;99.90
21039;DHT22;10678;51.002;4.786;2024-03-22T05:17:10;12.50;99.90
21039;DHT22;10678;51.002;4.786;2024-03-22T05:19:35;12.60;99.90
21039;DHT22;10678;51.002;4.786;2024-03-22T05:22:01;12.80;99.90
21039;DHT22;10678;51.002;4.786;2024-03-22T05:24:28;12.70;99.90
21039;DHT22;10678;51.002;4.786;2024-03-22T05:26:53;12.70;99.90
21039;DHT22;10678;51.002;4.786;2024-03-22T05:29:19;12.60;99.90
21039;DHT22;10678;51.002;4.786;2024-03-22T05:31:49;12.50;99.90
21039;DHT22;10678;51.002;4.786;2024-03-22T05:34:17;12.60;99.90
21039;DHT22;10678;51.002;4.786;2024-03-22T05:36:43;12.40;99.90
21039;DHT22;10678;51.002;4.786;2024-03-22T05:39:08;12.50;99.90
21039;DHT22;10678;51.002;4.786;2024-03-22T05:41:36;12.40;99.90
21039;DHT22;10678;51.002;4.786;2024-03-22T05:44:01;12.30;99.90
21039;DHT22;10678;51.002;4.786;2024-03-22T05:46:29;12.40;99.90
21039;DHT22;10678;51.002;4.786;2024-03-22T05:48:54;12.20;99.90
21039;DHT22;10678;51.002;4.786;2024-03-22T05:51:20;12.20;99.90
21039;DHT22;10678;51.002;4.786;2024-03-22T05:53:46;12.40;99.90
21039;DHT22;10678;51.002;4.786;2024-03-22T05:56:11;12.40;99.90
21039;DHT22;10678;51.002;4.786;2024-03-22T05:58:37;12.50;99.90
21039;DHT22;10678;51.002;4.786;2024-03-22T06:01:03;12.50;99.90
21039;DHT22;10678;51.002;4.786;2024-03-22T06:03:29;12.30;99.90
21039;DHT22;10678;51.002;4.786;2024-03-22T06:05:55;12.30;99.90
21039;DHT22;10678;51.002;4.786;2024-03-22T06:08:25;12.40;99.90
21039;DHT22;10678;51.002;4.786;2024-03-22T06:10:52;12.30;99.90
21039;DHT22;10678;51.002;4.786;2024-03-22T06:13:17;12.30;99.90
21039;DHT22;10678;51.002;4.786;2024-03-22T06:15:43;12.30;99.90
21039;DHT22;10678;51.002;4.786;2024-03-22T06:18:12;12.50;99.90
21039;DHT22;10678;51.002;4.786;2024-03-22T06:20:38;12.50;99.90
21039;DHT22;10678;51.002;4.786;2024-03-22T06:23:03;12.50;99.90
21039;DHT22;10678;51.002;4.786;2024-03-22T06:25:29;12.40;99.90
21039;DHT22;10678;51.002;4.786;2024-03-22T06:27:55;12.50;99.90
21039;DHT22;10678;51.002;4.786;2024-03-22T06:30:20;12.50;99.90
21039;DHT22;10678;51.002;4.786;2024-03-22T06:32:46;12.50;99.90
21039;DHT22;10678;51.002;4.786;2024-03-22T06:35:12;12.40;99.90
21039;DHT22;10678;51.002;4.786;2024-03-22T06:37:40;12.40;99.90
21039;DHT22;10678;51.002;4.786;2024-03-22T06:40:07;12.40;99.90
21039;DHT22;10678;51.002;4.786;2024-03-22T06:42:33;12.30;99.90
21039;DHT22;10678;51.002;4.786;2024-03-22T06:44:58;12.50;99.90
21039;DHT22;10678;51.002;4.786;2024-03-22T06:47:24;12.60;99.90
21039;DHT22;10678;51.002;4.786;2024-03-22T06:49:50;12.40;99.90
21039;DHT22;10678;51.002;4.786;2024-03-22T06:52:15;12.40;99.90
21039;DHT22;10678;51.002;4.786;2024-03-22T06:54:41;12.60;99.90
21039;DHT22;10678;51.002;4.786;2024-03-22T06:57:07;12.60;99.90
21039;DHT22;10678;51.002;4.786;2024-03-22T06:59:32;12.60;99.90
21039;DHT22;10678;51.002;4.786;2024-03-22T07:01:58;12.50;99.90
21039;DHT22;10678;51.002;4.786;2024-03-22T07:04:24;12.50;99.90
21039;DHT22;10678;51.002;4.786;2024-03-22T07:06:52;12.50;99.90
21039;DHT22;10678;51.002;4.786;2024-03-22T07:09:18;12.50;99.90
21039;DHT22;10678;51.002;4.786;2024-03-22T07:11:44;12.40;99.90
21039;DHT22;10678;51.002;4.786;2024-03-22T07:14:09;12.60;99.90
21039;DHT22;10678;51.002;4.786;2024-03-22T07:16:35;12.70;99.90
21039;DHT22;10678;51.002;4.786;2024-03-22T07:19:03;12.70;99.90
21039;DHT22;10678;51.002;4.786;2024-03-22T07:21:29;12.80;99.90
21039;DHT22;10678;51.002;4.786;2024-03-22T07:23:55;12.80;99.90
21039;DHT22;10678;51.002;4.786;2024-03-22T07:26:20;12.90;99.90
21039;DHT22;10678;51.002;4.786;2024-03-22T07:28:46;12.90;99.90
21039;DHT22;10678;51.002;4.786;2024-03-22T07:31:12;12.90;99.90
21039;DHT22;10678;51.002;4.786;2024-03-22T07:33:37;12.80;99.90
21039;DHT22;10678;51.002;4.786;2024-03-22T07:36:05;12.70;99.90
21039;DHT22;10678;51.002;4.786;2024-03-22T07:38:30;12.60;99.90
21039;DHT22;10678;51.002;4.786;2024-03-22T07:40:56;12.60;99.90
21039;DHT22;10678;51.002;4.786;2024-03-22T07:43:22;12.70;99.90
21039;DHT22;10678;51.002;4.786;2024-03-22T07:45:47;12.80;99.90
21039;DHT22;10678;51.002;4.786;2024-03-22T07:48:13;12.90;99.90
21039;DHT22;10678;51.002;4.786;2024-03-22T07:50:39;13.00;99.90
21039;DHT22;10678;51.002;4.786;2024-03-22T07:53:04;13.10;99.90
21039;DHT22;10678;51.002;4.786;2024-03-22T07:55:30;13.40;99.90
21039;DHT22;10678;51.002;4.786;2024-03-22T07:57:56;13.30;99.90
21039;DHT22;10678;51.002;4.786;2024-03-22T08:00:23;13.40;99.90
21039;DHT22;10678;51.002;4.786;2024-03-22T08:02:51;13.50;99.90
21039;DHT22;10678;51.002;4.786;2024-03-22T08:05:16;13.60;99.90
21039;DHT22;10678;51.002;4.786;2024-03-22T08:07:42;13.70;99.90
21039;DHT22;10678;51.002;4.786;2024-03-22T08:10:09;13.70;99.90
21039;DHT22;10678;51.002;4.786;2024-03-22T08:12:35;13.70;99.90
21039;DHT22;10678;51.002;4.786;2024-03-22T08:15:01;13.80;99.90
21039;DHT22;10678;51.002;4.786;2024-03-22T08:17:28;13.80;99.90
21039;DHT22;10678;51.002;4.786;2024-03-22T08:19:53;13.90;99.90
21039;DHT22;10678;51.002;4.786;2024-03-22T08:22:19;13.90;99.90
21039;DHT22;10678;51.002;4.786;2024-03-22T08:24:45;13.90;99.90
21039;DHT22;10678;51.002;4.786;2024-03-22T08:27:10;14.10;99.90
21039;DHT22;10678;51.002;4.786;2024-03-22T08:29:37;14.00;99.90
21039;DHT22;10678;51.002;4.786;2024-03-22T08:32:04;13.80;99.90
21039;DHT22;10678;51.002;4.786;2024-03-22T08:34:30;13.80;99.90
21039;DHT22;10678;51.002;4.786;2024-03-22T08:36:58;13.90;99.90
21039;DHT22;10678;51.002;4.786;2024-03-22T08:39:23;14.00;99.90
21039;DHT22;10678;51.002;4.786;2024-03-22T08:41:49;14.30;99.90
21039;DHT22;10678;51.002;4.786;2024-03-22T08:44:15;14.60;99.90
21039;DHT22;10678;51.002;4.786;2024-03-22T08:46:41;14.70;99.90
21039;DHT22;10678;51.002;4.786;2024-03-22T08:49:06;14.60;99.90
21039;DHT22;10678;51.002;4.786;2024-03-22T08:51:32;14.60;99.90
21039;DHT22;10678;51.002;4.786;2024-03-22T08:53:57;14.40;99.90
21039;DHT22;10678;51.002;4.786;2024-03-22T08:56:23;14.40;99.90
21039;DHT22;10678;51.002;4.786;2024-03-22T08:58:49;14.50;99.90
21039;DHT22;10678;51.002;4.786;2024-03-22T09:01:15;14.20;99.90
21039;DHT22;10678;51.002;4.786;2024-03-22T09:03:41;14.20;99.90
21039;DHT22;10678;51.002;4.786;2024-03-22T09:06:08;13.90;99.90
21039;DHT22;10678;51.002;4.786;2024-03-22T09:08:34;13.90;99.90
21039;DHT22;10678;51.002;4.786;2024-03-22T09:10:59;14.20;99.90
21039;DHT22;10678;51.002;4.786;2024-03-22T09:13:25;14.30;99.90
21039;DHT22;10678;51.002;4.786;2024-03-22T09:15:59;14.30;99.90
21039;DHT22;10678;51.002;4.786;2024-03-22T09:18:26;14.40;99.90
21039;DHT22;10678;51.002;4.786;2024-03-22T09:20:53;14.50;99.90
21039;DHT22;10678;51.002;4.786;2024-03-22T09:23:19;14.40;99.90
21039;DHT22;10678;51.002;4.786;2024-03-22T09:25:48;14.30;99.90
21039;DHT22;10678;51.002;4.786;2024-03-22T09:28:14;14.30;99.90
21039;DHT22;10678;51.002;4.786;2024-03-22T09:30:42;14.40;99.90
21039;DHT22;10678;51.002;4.786;2024-03-22T09:33:09;14.50;99.90
21039;DHT22;10678;51.002;4.786;2024-03-22T09:35:34;14.70;99.90
21039;DHT22;10678;51.002;4.786;2024-03-22T09:38:00;14.60;99.90
21039;DHT22;10678;51.002;4.786;2024-03-22T09:40:26;14.80;99.90
21039;DHT22;10678;51.002;4.786;2024-03-22T09:42:53;14.70;99.90
21039;DHT22;10678;51.002;4.786;2024-03-22T09:45:19;14.80;99.90
21039;DHT22;10678;51.002;4.786;2024-03-22T09:47:48;14.60;99.90
21039;DHT22;10678;51.002;4.786;2024-03-22T09:50:14;14.70;99.90
21039;DHT22;10678;51.002;4.786;2024-03-22T09:52:41;14.70;99.90
21039;DHT22;10678;51.002;4.786;2024-03-22T09:55:08;14.80;99.90
21039;DHT22;10678;51.002;4.786;2024-03-22T09:57:38;14.80;99.90
21039;DHT22;10678;51.002;4.786;2024-03-22T10:00:08;14.90;99.90
21039;DHT22;10678;51.002;4.786;2024-03-22T10:02:34;15.20;99.90
21039;DHT22;10678;51.002;4.786;2024-03-22T10:05:00;15.00;99.90
21039;DHT22;10678;51.002;4.786;2024-03-22T10:07:28;14.80;99.90
21039;DHT22;10678;51.002;4.786;2024-03-22T10:09:58;14.70;99.90
21039;DHT22;10678;51.002;4.786;2024-03-22T10:12:23;14.80;99.90
21039;DHT22;10678;51.002;4.786;2024-03-22T10:14:54;14.90;99.90
21039;DHT22;10678;51.002;4.786;2024-03-22T10:17:20;15.00;99.90
21039;DHT22;10678;51.002;4.786;2024-03-22T10:19:48;15.10;99.90
21039;DHT22;10678;51.002;4.786;2024-03-22T10:22:16;15.30;99.90
21039;DHT22;10678;51.002;4.786;2024-03-22T10:24:44;15.30;99.90
21039;DHT22;10678;51.002;4.786;2024-03-22T10:27:10;15.20;99.90
21039;DHT22;10678;51.002;4.786;2024-03-22T10:29:36;15.50;99.90
21039;DHT22;10678;51.002;4.786;2024-03-22T10:32:02;15.50;99.90
21039;DHT22;10678;51.002;4.786;2024-03-22T10:34:28;15.60;99.90
21039;DHT22;10678;51.002;4.786;2024-03-22T10:36:59;15.50;99.90
21039;DHT22;10678;51.002;4.786;2024-03-22T10:39:26;15.40;99.90
21039;DHT22;10678;51.002;4.786;2024-03-22T10:41:52;15.20;99.90
21039;DHT22;10678;51.002;4.786;2024-03-22T10:44:18;15.00;99.90
21039;DHT22;10678;51.002;4.786;2024-03-22T10:46:46;15.20;99.90
21039;DHT22;10678;51.002;4.786;2024-03-22T10:49:19;15.10;99.90
21039;DHT22;10678;51.002;4.786;2024-03-22T10:52:01;15.00;99.90
21039;DHT22;10678;51.002;4.786;2024-03-22T10:54:46;15.20;99.90
21039;DHT22;10678;51.002;4.786;2024-03-22T10:57:14;15.20;99.90
21039;DHT22;10678;51.002;4.786;2024-03-22T10:59:43;15.30;99.90
21039;DHT22;10678;51.002;4.786;2024-03-22T11:02:11;15.30;99.90
21039;DHT22;10678;51.002;4.786;2024-03-22T11:04:37;15.30;99.90
21039;DHT22;10678;51.002;4.786;2024-03-22T11:07:02;15.30;99.90
21039;DHT22;10678;51.002;4.786;2024-03-22T11:09:29;15.30;99.90
21039;DHT22;10678;51.002;4.786;2024-03-22T11:11:56;15.20;99.90
21039;DHT22;10678;51.002;4.786;2024-03-22T11:14:26;15.30;99.90
21039;DHT22;10678;51.002;4.786;2024-03-22T11:16:52;15.10;99.90
21039;DHT22;10678;51.002;4.786;2024-03-22T11:19:18;15.00;99.90
21039;DHT22;10678;51.002;4.786;2024-03-22T11:21:44;14.90;99.90
21039;DHT22;10678;51.002;4.786;2024-03-22T11:24:09;15.00;99.90
21039;DHT22;10678;51.002;4.786;2024-03-22T11:26:36;15.00;99.90
21039;DHT22;10678;51.002;4.786;2024-03-22T11:29:02;14.80;99.90
21039;DHT22;10678;51.002;4.786;2024-03-22T11:31:28;14.70;99.90
21039;DHT22;10678;51.002;4.786;2024-03-22T11:33:54;14.90;99.90
21039;DHT22;10678;51.002;4.786;2024-03-22T11:36:20;14.80;99.90
21039;DHT22;10678;51.002;4.786;2024-03-22T11:38:46;14.60;99.90
21039;DHT22;10678;51.002;4.786;2024-03-22T11:41:17;14.60;99.90
21039;DHT22;10678;51.002;4.786;2024-03-22T11:43:45;14.60;99.90
21039;DHT22;10678;51.002;4.786;2024-03-22T11:46:14;14.40;99.90
21039;DHT22;10678;51.002;4.786;2024-03-22T11:48:40;14.50;99.90
21039;DHT22;10678;51.002;4.786;2024-03-22T11:51:08;14.50;99.90
21039;DHT22;10678;51.002;4.786;2024-03-22T11:53:35;14.50;99.90
21039;DHT22;10678;51.002;4.786;2024-03-22T11:56:00;14.60;99.90
21039;DHT22;10678;51.002;4.786;2024-03-22T11:58:29;14.70;99.90
21039;DHT22;10678;51.002;4.786;2024-03-22T12:00:56;14.70;99.90
21039;DHT22;10678;51.002;4.786;2024-03-22T12:03:22;14.80;99.90
21039;DHT22;10678;51.002;4.786;2024-03-22T12:05:48;14.80;99.90
21039;DHT22;10678;51.002;4.786;2024-03-22T12:08:19;14.80;99.90
21039;DHT22;10678;51.002;4.786;2024-03-22T12:10:44;14.80;99.90
21039;DHT22;10678;51.002;4.786;2024-03-22T12:13:10;14.80;99.90
21039;DHT22;10678;51.002;4.786;2024-03-22T12:15:36;14.80;99.90
21039;DHT22;10678;51.002;4.786;2024-03-22T12:18:02;14.70;99.90
21039;DHT22;10678;51.002;4.786;2024-03-22T12:20:28;14.80;99.90
21039;DHT22;10678;51.002;4.786;2024-03-22T12:22:55;14.80;99.90
21039;DHT22;10678;51.002;4.786;2024-03-22T12:25:20;14.50;99.90
21039;DHT22;10678;51.002;4.786;2024-03-22T12:27:47;14.20;99.90
21039;DHT22;10678;51.002;4.786;2024-03-22T12:30:13;14.40;99.90
21039;DHT22;10678;51.002;4.786;2024-03-22T12:32:38;14.40;99.90
21039;DHT22;10678;51.002;4.786;2024-03-22T12:35:05;14.40;99.90
21039;DHT22;10678;51.002;4.786;2024-03-22T12:37:31;14.40;99.90
21039;DHT22;10678;51.002;4.786;2024-03-22T12:39:56;14.30;99.90
21039;DHT22;10678;51.002;4.786;2024-03-22T12:42:22;14.40;99.90
21039;DHT22;10678;51.002;4.786;2024-03-22T12:44:48;14.30;99.90
21039;DHT22;10678;51.002;4.786;2024-03-22T12:47:14;14.20;99.90
21039;DHT22;10678;51.002;4.786;2024-03-22T12:49:39;14.20;99.90
21039;DHT22;10678;51.002;4.786;2024-03-22T12:52:06;14.20;99.90
21039;DHT22;10678;51.002;4.786;2024-03-22T12:54:32;14.10;99.90
21039;DHT22;10678;51.002;4.786;2024-03-22T12:56:57;14.10;99.90
21039;DHT22;10678;51.002;4.786;2024-03-22T12:59:23;14.10;99.90
21039;DHT22;10678;51.002;4.786;2024-03-22T13:01:49;14.10;99.90
21039;DHT22;10678;51.002;4.786;2024-03-22T13:04:14;14.10;99.90
21039;DHT22;10678;51.002;4.786;2024-03-22T13:06:40;13.90;99.90
21039;DHT22;10678;51.002;4.786;2024-03-22T13:09:06;14.00;99.90
21039;DHT22;10678;51.002;4.786;2024-03-22T13:11:35;13.80;99.90
21039;DHT22;10678;51.002;4.786;2024-03-22T13:14:01;13.80;99.90
21039;DHT22;10678;51.002;4.786;2024-03-22T13:16:26;13.60;99.90
21039;DHT22;10678;51.002;4.786;2024-03-22T13:18:53;13.70;99.90
21039;DHT22;10678;51.002;4.786;2024-03-22T13:21:18;13.50;99.90
21039;DHT22;10678;51.002;4.786;2024-03-22T13:23:45;13.60;99.90
21039;DHT22;10678;51.002;4.786;2024-03-22T13:26:10;13.60;99.90
21039;DHT22;10678;51.002;4.786;2024-03-22T13:28:36;13.70;99.90
21039;DHT22;10678;51.002;4.786;2024-03-22T13:31:05;13.80;99.90
21039;DHT22;10678;51.002;4.786;2024-03-22T13:33:34;13.80;99.90
21039;DHT22;10678;51.002;4.786;2024-03-22T13:36:00;13.80;99.90
21039;DHT22;10678;51.002;4.786;2024-03-22T13:38:26;13.70;99.90
21039;DHT22;10678;51.002;4.786;2024-03-22T13:40:55;13.70;99.90
21039;DHT22;10678;51.002;4.786;2024-03-22T13:43:22;13.70;99.90
21039;DHT22;10678;51.002;4.786;2024-03-22T13:45:51;13.90;99.90
21039;DHT22;10678;51.002;4.786;2024-03-22T13:48:20;13.90;99.90
21039;DHT22;10678;51.002;4.786;2024-03-22T13:50:52;13.90;99.90
21039;DHT22;10678;51.002;4.786;2024-03-22T13:53:19;13.80;99.90
21039;DHT22;10678;51.002;4.786;2024-03-22T13:55:44;13.70;99.90
21039;DHT22;10678;51.002;4.786;2024-03-22T13:58:11;13.60;99.90
21039;DHT22;10678;51.002;4.786;2024-03-22T14:00:38;13.70;99.90
21039;DHT22;10678;51.002;4.786;2024-03-22T14:03:04;13.80;99.90
21039;DHT22;10678;51.002;4.786;2024-03-22T14:05:30;13.80;99.90
21039;DHT22;10678;51.002;4.786;2024-03-22T14:07:57;13.60;99.90
21039;DHT22;10678;51.002;4.786;2024-03-22T14:10:23;13.60;99.90
21039;DHT22;10678;51.002;4.786;2024-03-22T14:12:50;13.60;99.90
21039;DHT22;10678;51.002;4.786;2024-03-22T14:15:16;13.70;99.90
21039;DHT22;10678;51.002;4.786;2024-03-22T14:17:42;13.60;99.90
21039;DHT22;10678;51.002;4.786;2024-03-22T14:20:08;13.60;99.90
21039;DHT22;10678;51.002;4.786;2024-03-22T14:22:40;13.60;99.90
21039;DHT22;10678;51.002;4.786;2024-03-22T14:25:07;13.50;99.90
21039;DHT22;10678;51.002;4.786;2024-03-22T14:27:34;13.60;99.90
21039;DHT22;10678;51.002;4.786;2024-03-22T14:30:00;13.60;99.90
21039;DHT22;10678;51.002;4.786;2024-03-22T14:32:26;13.60;99.90
21039;DHT22;10678;51.002;4.786;2024-03-22T14:34:52;13.70;99.90
21039;DHT22;10678;51.002;4.786;2024-03-22T14:37:18;13.80;99.90
21039;DHT22;10678;51.002;4.786;2024-03-22T14:39:43;13.80;99.90
21039;DHT22;10678;51.002;4.786;2024-03-22T14:42:09;13.90;99.90
21039;DHT22;10678;51.002;4.786;2024-03-22T14:44:35;13.80;99.90
21039;DHT22;10678;51.002;4.786;2024-03-22T14:47:00;13.80;99.90
21039;DHT22;10678;51.002;4.786;2024-03-22T14:49:26;13.90;99.90
21039;DHT22;10678;51.002;4.786;2024-03-22T14:51:52;13.80;99.90
21039;DHT22;10678;51.002;4.786;2024-03-22T14:54:17;13.70;99.90
21039;DHT22;10678;51.002;4.786;2024-03-22T14:56:43;13.70;99.90
21039;DHT22;10678;51.002;4.786;2024-03-22T14:59:08;13.60;99.90
21039;DHT22;10678;51.002;4.786;2024-03-22T15:01:34;13.50;99.90
21039;DHT22;10678;51.002;4.786;2024-03-22T15:04:01;13.50;99.90
21039;DHT22;10678;51.002;4.786;2024-03-22T15:06:26;13.50;99.90
21039;DHT22;10678;51.002;4.786;2024-03-22T15:08:55;13.50;99.90
21039;DHT22;10678;51.002;4.786;2024-03-22T15:11:20;13.50;99.90
21039;DHT22;10678;51.002;4.786;2024-03-22T15:13:47;13.70;99.90
21039;DHT22;10678;51.002;4.786;2024-03-22T15:16:12;13.60;99.90
21039;DHT22;10678;51.002;4.786;2024-03-22T15:18:39;13.60;99.90
21039;DHT22;10678;51.002;4.786;2024-03-22T15:21:07;13.50;99.90
21039;DHT22;10678;51.002;4.786;2024-03-22T15:23:33;13.60;99.90
21039;DHT22;10678;51.002;4.786;2024-03-22T15:25:58;13.60;99.90